Time;durP1;ratioP1;P1;durP2;ratioP2;P2;SDS_P1;SDS_P2;PMS_P1;PMS_P2;Temp;Humidity;BMP_temperature;BMP_pressure;BME280_temperature;BME280_humidity;BME280_pressure;Samples;Min_cycle;Max_cycle;Signal;HPM_P1;HPM_P2
2021/10/31 00:00:10;;;;;;;2.85;1.48;;;17.40;75.90;;;;;;10377289;28;20053;-58
2021/10/31 00:05:11;;;;;;;2.83;1.27;;;17.40;75.80;;;;;;10376750;28;20058;-58
2021/10/31 00:10:12;;;;;;;4.28;1.48;;;17.40;75.60;;;;;;10376714;28;20034;-59
2021/10/31 00:15:13;;;;;;;1.75;1.02;;;17.40;75.60;;;;;;10376648;28;20034;-58
2021/10/31 00:20:13;;;;;;;1.65;1.10;;;17.40;75.60;;;;;;10376455;28;20105;-58
2021/10/31 00:25:15;;;;;;;3.38;1.85;;;17.40;75.60;;;;;;10364065;28;20043;-58
2021/10/31 00:30:16;;;;;;;2.47;1.55;;;17.40;76.20;;;;;;10345227;28;20094;-59
2021/10/31 00:35:17;;;;;;;2.03;1.13;;;17.40;75.60;;;;;;10335455;28;20233;-58
2021/10/31 00:40:18;;;;;;;2.50;1.42;;;17.40;75.60;;;;;;10335104;28;20072;-58
2021/10/31 00:45:19;;;;;;;2.53;1.55;;;17.40;75.60;;;;;;10335013;28;20113;-58
2021/10/31 00:50:20;;;;;;;2.65;1.20;;;17.40;75.50;;;;;;10335071;28;20037;-59
2021/10/31 00:55:21;;;;;;;3.40;1.38;;;17.40;75.50;;;;;;10334699;28;20026;-59
2021/10/31 01:00:22;;;;;;;2.83;1.00;;;17.40;75.50;;;;;;10333642;28;20034;-58
2021/10/31 01:05:31;;;;;;;2.55;0.98;;;17.40;75.40;;;;;;10374403;28;20113;-58
2021/10/31 01:11:18;;;;;;;1.73;0.98;;;17.40;75.40;;;;;;10374493;28;20401;-59
2021/10/31 01:17:08;;;;;;;2.08;1.08;;;17.40;75.30;;;;;;10350014;28;20073;-58
2021/10/31 01:22:18;;;;;;;3.77;1.27;;;17.40;75.30;;;;;;10373333;28;20072;-58
2021/10/31 01:28:00;;;;;;;3.58;1.08;;;17.40;75.20;;;;;;10350331;28;20288;-58
2021/10/31 01:33:37;;;;;;;2.83;1.20;;;17.40;75.20;;;;;;10345492;28;20066;-58
2021/10/31 01:38:59;;;;;;;2.38;1.40;;;17.40;75.10;;;;;;10331769;28;20027;-59
2021/10/31 01:44:05;;;;;;;2.40;1.30;;;17.40;75.10;;;;;;10332564;28;20561;-58
2021/10/31 01:49:31;;;;;;;2.53;1.05;;;17.40;75.20;;;;;;10332928;28;20030;-58
2021/10/31 01:55:11;;;;;;;2.50;1.10;;;17.40;75.20;;;;;;10331590;28;20031;-59
2021/10/31 02:00:14;;;;;;;4.30;1.23;;;17.40;75.00;;;;;;10324777;28;20043;-58
2021/10/31 02:05:23;;;;;;;1.40;1.02;;;17.50;74.70;;;;;;10370027;28;20105;-55
2021/10/31 02:10:24;;;;;;;1.77;0.70;;;17.50;74.50;;;;;;10369512;28;20034;-59
2021/10/31 02:15:27;;;;;;;2.13;0.80;;;17.60;74.40;;;;;;10371332;28;20101;-59
2021/10/31 02:20:29;;;;;;;1.60;0.90;;;17.50;74.40;;;;;;10372468;28;20485;-59
2021/10/31 02:25:31;;;;;;;3.40;1.13;;;17.50;74.50;;;;;;10341783;28;20026;-59
2021/10/31 02:30:31;;;;;;;1.60;1.02;;;17.50;74.60;;;;;;10341764;28;20049;-58
2021/10/31 02:35:33;;;;;;;2.38;1.15;;;17.50;74.70;;;;;;10331520;28;20049;-59
2021/10/31 02:40:37;;;;;;;0.85;0.63;;;17.40;74.70;;;;;;10329957;28;20057;-58
2021/10/31 02:45:38;;;;;;;1.90;0.85;;;17.40;74.70;;;;;;10331405;28;20027;-59
2021/10/31 02:50:43;;;;;;;1.90;1.15;;;17.40;74.60;;;;;;10331476;28;20121;-58
2021/10/31 02:56:24;;;;;;;1.85;1.02;;;17.40;74.70;;;;;;10331275;28;20069;-58
2021/10/31 03:01:26;;;;;;;1.65;0.80;;;17.40;74.70;;;;;;10339321;28;20490;-58
2021/10/31 03:06:28;;;;;;;1.38;0.93;;;17.40;74.70;;;;;;10354207;28;20478;-58
2021/10/31 03:11:29;;;;;;;1.38;0.82;;;17.40;74.70;;;;;;10371676;28;20036;-58
2021/10/31 03:16:29;;;;;;;3.42;1.30;;;17.40;74.60;;;;;;10371420;28;20532;-59
2021/10/31 03:21:31;;;;;;;1.65;1.00;;;17.40;74.50;;;;;;10371266;28;20038;-59
2021/10/31 03:26:32;;;;;;;1.98;1.08;;;17.40;74.50;;;;;;10357134;28;20112;-58
2021/10/31 03:31:32;;;;;;;2.13;0.80;;;17.40;74.50;;;;;;10348333;28;20026;-59
2021/10/31 03:36:33;;;;;;;1.55;0.80;;;17.40;74.50;;;;;;10337948;28;20390;-59
2021/10/31 03:41:35;;;;;;;2.05;1.20;;;17.50;74.20;;;;;;10337429;28;20053;-59
2021/10/31 03:46:35;;;;;;;1.65;1.10;;;17.50;74.10;;;;;;10337436;28;20097;-58
2021/10/31 03:51:36;;;;;;;2.63;0.80;;;17.50;74.10;;;;;;10337462;28;20707;-58
2021/10/31 03:56:37;;;;;;;1.52;0.80;;;17.50;74.10;;;;;;10335700;28;20033;-57
2021/10/31 04:01:38;;;;;;;1.65;0.95;;;17.50;74.00;;;;;;10346835;28;20026;-58
2021/10/31 04:06:39;;;;;;;1.52;0.80;;;17.50;74.10;;;;;;10377043;28;20025;-59
2021/10/31 04:11:39;;;;;;;1.98;1.17;;;17.50;74.20;;;;;;10377006;28;20087;-58
2021/10/31 04:16:40;;;;;;;1.85;0.98;;;17.40;74.20;;;;;;10376769;28;20084;-58
2021/10/31 04:21:41;;;;;;;1.45;0.95;;;17.40;74.30;;;;;;10376370;28;20121;-58
2021/10/31 04:26:42;;;;;;;1.58;0.90;;;17.40;74.30;;;;;;10363046;28;20029;-58
2021/10/31 04:31:42;;;;;;;1.95;0.90;;;17.50;74.00;;;;;;10376205;28;20108;-59
2021/10/31 04:36:44;;;;;;;1.40;0.77;;;17.50;73.80;;;;;;10374913;28;20478;-58
2021/10/31 04:41:46;;;;;;;1.75;0.98;;;17.60;73.80;;;;;;10375550;28;20126;-58
2021/10/31 04:46:47;;;;;;;1.55;1.05;;;17.50;73.80;;;;;;10375488;28;20026;-58
2021/10/31 04:51:48;;;;;;;1.70;0.98;;;17.50;73.80;;;;;;10375399;28;20033;-58
2021/10/31 04:56:50;;;;;;;1.52;0.77;;;17.50;73.90;;;;;;10373994;28;20052;-58
2021/10/31 05:01:50;;;;;;;1.20;0.80;;;17.50;74.00;;;;;;10374862;28;20523;-58
2021/10/31 05:06:51;;;;;;;1.38;0.93;;;17.40;74.00;;;;;;10374412;28;20045;-58
2021/10/31 05:11:52;;;;;;;1.75;0.80;;;17.40;74.10;;;;;;10373871;28;20401;-59
2021/10/31 05:16:52;;;;;;;1.08;0.60;;;17.50;73.80;;;;;;10361108;28;20065;-58
2021/10/31 05:21:53;;;;;;;2.35;1.00;;;17.60;73.50;;;;;;10372452;28;20108;-58
2021/10/31 05:26:54;;;;;;;2.30;1.02;;;17.60;73.40;;;;;;10348528;28;20058;-59
2021/10/31 05:31:54;;;;;;;2.08;1.00;;;17.60;73.40;;;;;;10362911;28;20505;-58
2021/10/31 05:36:55;;;;;;;1.98;1.13;;;17.60;73.60;;;;;;10371553;28;20095;-59
2021/10/31 05:41:56;;;;;;;2.85;1.30;;;17.60;73.50;;;;;;10371509;28;20125;-58
2021/10/31 05:46:56;;;;;;;1.73;1.10;;;17.70;73.00;;;;;;10372149;28;20095;-58
2021/10/31 05:51:57;;;;;;;1.40;0.90;;;17.90;72.40;;;;;;10370655;28;20030;-58
2021/10/31 05:56:58;;;;;;;1.42;1.10;;;18.10;71.80;;;;;;10371236;28;20447;-58
2021/10/31 06:01:59;;;;;;;2.33;1.10;;;18.30;71.20;;;;;;10371567;28;20109;-59
2021/10/31 06:07:00;;;;;;;1.10;0.90;;;18.40;70.90;;;;;;10371292;28;20083;-58
2021/10/31 06:12:00;;;;;;;3.22;1.20;;;18.40;70.70;;;;;;10369764;28;20034;-57
2021/10/31 06:17:04;;;;;;;3.05;1.10;;;18.50;70.70;;;;;;10369470;28;20029;-57
2021/10/31 06:22:05;;;;;;;4.80;1.40;;;18.50;71.70;;;;;;10370691;28;20084;-58
2021/10/31 06:27:06;;;;;;;5.40;1.23;;;18.80;70.80;;;;;;10346723;28;20056;-56
2021/10/31 06:32:07;;;;;;;5.30;1.60;;;18.90;72.20;;;;;;10336042;28;20109;-56
2021/10/31 06:37:08;;;;;;;10.48;1.63;;;18.80;72.20;;;;;;10326813;28;20030;-56
2021/10/31 06:42:09;;;;;;;7.93;2.05;;;18.80;72.10;;;;;;10330309;28;20117;-58
2021/10/31 06:47:10;;;;;;;6.03;1.67;;;18.70;72.10;;;;;;10330261;28;20077;-57
2021/10/31 06:52:10;;;;;;;12.05;2.15;;;18.70;72.40;;;;;;10369130;28;20125;-58
2021/10/31 06:57:11;;;;;;;8.75;2.17;;;18.70;72.90;;;;;;10349533;28;20042;-56
2021/10/31 07:02:13;;;;;;;12.68;2.67;;;18.60;72.70;;;;;;10377720;28;20061;-58
2021/10/31 07:07:14;;;;;;;6.63;1.92;;;18.60;72.80;;;;;;10377393;28;20029;-56
2021/10/31 07:12:15;;;;;;;8.13;1.95;;;18.60;73.00;;;;;;10347577;28;20045;-56
2021/10/31 07:17:16;;;;;;;10.90;3.20;;;18.40;73.10;;;;;;10364596;28;20038;-60
2021/10/31 07:22:19;;;;;;;10.88;2.42;;;18.30;73.50;;;;;;10372977;28;20030;-55
2021/10/31 07:27:20;;;;;;;16.15;2.13;;;18.30;73.70;;;;;;10354050;28;20053;-56
2021/10/31 07:32:21;;;;;;;11.18;2.50;;;18.30;74.00;;;;;;10341875;28;20506;-57
2021/10/31 07:37:22;;;;;;;13.35;3.00;;;18.30;74.00;;;;;;10366259;28;20032;-56
2021/10/31 07:42:28;;;;;;;19.05;3.13;;;18.30;73.70;;;;;;10377730;28;20054;-57
2021/10/31 07:47:29;;;;;;;13.10;2.88;;;18.30;73.60;;;;;;10353119;28;20084;-57
2021/10/31 07:52:29;;;;;;;15.10;4.03;;;18.30;73.40;;;;;;10336972;28;20120;-55
2021/10/31 07:57:33;;;;;;;18.00;4.05;;;18.40;73.20;;;;;;10345241;28;20025;-58
2021/10/31 08:02:34;;;;;;;11.95;2.50;;;18.30;73.00;;;;;;10374709;28;20022;-57
2021/10/31 08:07:34;;;;;;;9.85;2.95;;;18.30;73.40;;;;;;10376650;28;20030;-57
2021/10/31 08:12:35;;;;;;;12.77;2.83;;;18.30;73.10;;;;;;10356452;28;20073;-57
2021/10/31 08:17:37;;;;;;;10.70;2.88;;;18.20;73.20;;;;;;10330692;28;20034;-57
2021/10/31 08:22:38;;;;;;;6.40;2.70;;;18.30;72.90;;;;;;10331310;28;20038;-58
2021/10/31 08:27:39;;;;;;;9.13;3.28;;;18.30;72.50;;;;;;10358852;28;20121;-57
2021/10/31 08:32:47;;;;;;;11.25;2.60;;;18.40;72.50;;;;;;10336985;28;20034;-58
2021/10/31 08:37:48;;;;;;;6.63;2.73;;;18.30;72.50;;;;;;10360688;28;20026;-58
2021/10/31 08:42:49;;;;;;;11.50;2.90;;;18.30;72.70;;;;;;10357269;28;20064;-56
2021/10/31 08:47:50;;;;;;;7.93;2.40;;;18.20;72.80;;;;;;10374830;28;20425;-57
2021/10/31 08:52:50;;;;;;;8.55;2.38;;;18.20;72.80;;;;;;10374698;28;20084;-58
2021/10/31 08:57:51;;;;;;;6.90;2.67;;;18.20;73.00;;;;;;10374500;28;20064;-57
2021/10/31 09:02:53;;;;;;;9.65;2.45;;;18.10;73.10;;;;;;10374242;28;20512;-58
2021/10/31 09:07:54;;;;;;;7.90;2.13;;;18.10;73.40;;;;;;10374050;28;20022;-57
2021/10/31 09:12:55;;;;;;;5.45;2.40;;;18.00;73.60;;;;;;10373776;28;20088;-57
2021/10/31 09:17:57;;;;;;;7.10;3.50;;;18.00;73.70;;;;;;10373609;28;20029;-58
2021/10/31 09:23:00;;;;;;;6.00;2.40;;;18.00;73.80;;;;;;10373115;28;20623;-56
2021/10/31 09:28:02;;;;;;;5.10;2.55;;;18.00;73.80;;;;;;10348889;28;20098;-58
2021/10/31 09:33:03;;;;;;;10.00;2.20;;;18.00;73.80;;;;;;10332103;28;20102;-57
2021/10/31 09:38:05;;;;;;;4.32;1.63;;;18.00;73.80;;;;;;10331209;28;20030;-56
2021/10/31 09:43:07;;;;;;;7.82;2.55;;;18.00;73.90;;;;;;10330584;28;20507;-57
2021/10/31 09:48:11;;;;;;;4.40;2.47;;;18.00;73.90;;;;;;10332149;28;20027;-57
2021/10/31 09:53:18;;;;;;;7.22;2.55;;;18.00;74.00;;;;;;10339463;28;20033;-58
2021/10/31 09:58:34;;;;;;;3.38;1.80;;;18.00;73.90;;;;;;10349015;28;20026;-56
2021/10/31 10:03:36;;;;;;;3.92;1.85;;;18.00;74.00;;;;;;10357260;28;20075;-57
2021/10/31 10:08:36;;;;;;;4.10;1.75;;;18.00;73.90;;;;;;10354347;28;20108;-57
2021/10/31 10:13:37;;;;;;;3.67;2.10;;;18.00;73.90;;;;;;10370538;28;20507;-58
2021/10/31 10:18:38;;;;;;;4.95;2.03;;;18.00;73.90;;;;;;10371447;28;20034;-58
2021/10/31 10:23:57;;;;;;;4.43;1.77;;;18.00;73.90;;;;;;10371441;28;20026;-58
2021/10/31 10:29:17;;;;;;;4.20;1.80;;;18.00;73.90;;;;;;10357273;28;20061;-58
2021/10/31 10:34:48;;;;;;;3.05;1.92;;;18.00;74.00;;;;;;10349914;28;20496;-56
2021/10/31 10:40:03;;;;;;;3.67;1.55;;;18.00;73.80;;;;;;10378522;28;20033;-56
2021/10/31 10:45:11;;;;;;;2.58;1.85;;;18.00;73.80;;;;;;10379386;28;20041;-58
2021/10/31 10:50:22;;;;;;;3.72;1.80;;;18.00;73.80;;;;;;10379621;28;20030;-57
2021/10/31 10:55:28;;;;;;;5.35;1.60;;;17.90;73.90;;;;;;10379160;28;20044;-57
2021/10/31 11:00:35;;;;;;;2.88;1.67;;;17.90;74.00;;;;;;10378638;28;20038;-58
2021/10/31 11:05:42;;;;;;;2.90;1.73;;;18.00;74.00;;;;;;10378984;28;20044;-58
2021/10/31 11:10:55;;;;;;;4.95;2.08;;;18.00;74.00;;;;;;10377395;28;20057;-59
2021/10/31 11:16:02;;;;;;;3.97;1.80;;;18.00;74.00;;;;;;10378306;28;20034;-56
2021/10/31 11:21:02;;;;;;;2.97;1.60;;;18.00;74.00;;;;;;10377962;28;20033;-56
2021/10/31 11:26:05;;;;;;;2.50;1.60;;;17.90;74.10;;;;;;10360663;28;20026;-59
2021/10/31 11:31:06;;;;;;;2.78;1.60;;;18.00;73.90;;;;;;10347757;28;20034;-58
2021/10/31 11:36:07;;;;;;;2.63;1.75;;;17.90;73.90;;;;;;10336930;28;20110;-58
2021/10/31 11:41:10;;;;;;;3.83;1.60;;;17.90;74.00;;;;;;10362935;28;20554;-58
2021/10/31 11:46:11;;;;;;;3.42;1.90;;;17.90;74.10;;;;;;10376874;28;20030;-58
2021/10/31 11:51:13;;;;;;;2.65;1.50;;;17.90;74.20;;;;;;10375944;28;20045;-57
2021/10/31 11:56:22;;;;;;;3.63;1.80;;;17.80;74.10;;;;;;10345999;28;20030;-58
2021/10/31 12:01:33;;;;;;;3.83;2.20;;;17.80;74.20;;;;;;10344127;28;20026;-58
2021/10/31 12:06:40;;;;;;;1.90;1.02;;;17.80;74.30;;;;;;10376283;28;20021;-58
2021/10/31 12:11:40;;;;;;;2.72;1.52;;;17.80;74.30;;;;;;10374982;28;20386;-58
2021/10/31 12:16:56;;;;;;;3.05;1.80;;;17.70;74.20;;;;;;10376013;28;20037;-58
2021/10/31 12:22:22;;;;;;;2.83;1.30;;;17.70;74.20;;;;;;10375713;28;20040;-57
2021/10/31 12:27:26;;;;;;;3.50;1.60;;;17.70;74.20;;;;;;10351540;28;20034;-56
2021/10/31 12:32:30;;;;;;;4.05;1.50;;;17.80;74.10;;;;;;10339879;28;20030;-57
2021/10/31 12:37:31;;;;;;;2.60;1.45;;;17.80;74.20;;;;;;10335088;28;20031;-58
2021/10/31 12:43:00;;;;;;;3.08;1.13;;;17.80;74.10;;;;;;10334343;28;20360;-58
2021/10/31 12:48:03;;;;;;;4.75;1.20;;;17.90;73.70;;;;;;10333452;28;20030;-58
2021/10/31 12:53:10;;;;;;;3.55;1.50;;;18.00;73.50;;;;;;10333990;28;20034;-57
2021/10/31 12:58:14;;;;;;;2.28;1.23;;;17.90;73.50;;;;;;10333457;28;20031;-58
2021/10/31 13:03:20;;;;;;;2.08;1.48;;;17.90;73.50;;;;;;10356796;28;20045;-57
2021/10/31 13:08:21;;;;;;;2.47;1.05;;;18.00;73.20;;;;;;10374552;28;20057;-56
2021/10/31 13:13:28;;;;;;;4.15;1.30;;;18.10;73.10;;;;;;10374147;28;20084;-57
2021/10/31 13:18:34;;;;;;;2.20;1.35;;;18.00;73.10;;;;;;10373937;28;20041;-58
2021/10/31 13:23:38;;;;;;;2.55;1.10;;;18.00;73.10;;;;;;10373313;28;20109;-58
2021/10/31 13:28:49;;;;;;;4.30;1.35;;;18.00;73.20;;;;;;10344877;28;20117;-58
2021/10/31 13:34:01;;;;;;;3.00;1.77;;;18.00;73.20;;;;;;10338282;28;20065;-58
2021/10/31 13:39:12;;;;;;;2.05;1.83;;;18.00;73.20;;;;;;10372963;28;20057;-58
2021/10/31 13:44:12;;;;;;;1.88;1.20;;;18.00;73.30;;;;;;10371586;28;20383;-58
2021/10/31 13:49:16;;;;;;;3.42;1.50;;;18.00;73.30;;;;;;10372828;28;20037;-58
2021/10/31 13:54:19;;;;;;;2.63;1.45;;;18.00;73.30;;;;;;10372761;28;20048;-56
2021/10/31 13:59:26;;;;;;;2.40;1.55;;;17.90;73.40;;;;;;10372444;28;20030;-58
2021/10/31 14:04:32;;;;;;;1.98;1.23;;;17.90;73.50;;;;;;10372173;28;20478;-56
2021/10/31 14:09:46;;;;;;;3.03;1.30;;;17.90;73.50;;;;;;10372152;28;20064;-58
2021/10/31 14:14:51;;;;;;;1.98;1.38;;;17.90;73.40;;;;;;10372478;28;20055;-56
2021/10/31 14:19:56;;;;;;;2.13;1.40;;;17.90;73.20;;;;;;10370536;28;20569;-56
2021/10/31 14:25:04;;;;;;;1.15;1.05;;;18.00;73.00;;;;;;10363289;28;20058;-57
2021/10/31 14:30:26;;;;;;;2.95;1.27;;;18.00;73.00;;;;;;10340002;28;20030;-58
2021/10/31 14:35:45;;;;;;;2.72;1.50;;;18.10;72.80;;;;;;10371286;28;20033;-58
2021/10/31 14:41:00;;;;;;;1.92;1.23;;;18.10;72.50;;;;;;10371139;28;20464;-58
2021/10/31 14:46:16;;;;;;;2.00;1.20;;;18.10;72.60;;;;;;10371386;28;20022;-57
2021/10/31 14:51:35;;;;;;;2.70;1.10;;;18.10;72.70;;;;;;10371443;28;20418;-57
2021/10/31 14:56:46;;;;;;;1.65;1.17;;;18.00;72.80;;;;;;10371283;28;20500;-57
2021/10/31 15:01:50;;;;;;;1.95;1.30;;;18.00;72.90;;;;;;10370756;28;20478;-57
2021/10/31 15:06:52;;;;;;;1.50;1.00;;;18.00;73.10;;;;;;10371145;28;20445;-57
2021/10/31 15:11:53;;;;;;;2.67;1.40;;;18.00;73.20;;;;;;10369678;28;20120;-58
2021/10/31 15:16:53;;;;;;;1.90;1.30;;;17.90;73.20;;;;;;10371045;28;20037;-57
2021/10/31 15:21:54;;;;;;;1.60;0.80;;;18.00;72.80;;;;;;10377188;28;20450;-58
2021/10/31 15:26:55;;;;;;;1.90;1.10;;;18.10;72.50;;;;;;10354582;28;20109;-58
2021/10/31 15:31:56;;;;;;;1.92;1.13;;;18.10;72.40;;;;;;10358580;28;20552;-58
2021/10/31 15:36:56;;;;;;;1.85;1.20;;;18.20;72.20;;;;;;10367022;28;20597;-58
2021/10/31 15:41:57;;;;;;;1.52;1.08;;;18.30;72.10;;;;;;10377314;28;20064;-58
2021/10/31 15:46:59;;;;;;;1.75;1.10;;;18.20;72.10;;;;;;10377512;28;20087;-58
2021/10/31 15:52:00;;;;;;;1.58;0.90;;;18.20;72.20;;;;;;10376020;28;20030;-58
2021/10/31 15:57:01;;;;;;;1.85;1.00;;;18.20;72.30;;;;;;10377411;28;20030;-57
2021/10/31 16:02:08;;;;;;;1.92;1.20;;;18.10;72.50;;;;;;10376890;28;20026;-58
2021/10/31 16:07:09;;;;;;;1.25;1.00;;;18.10;72.60;;;;;;10376521;28;20029;-55
2021/10/31 16:12:10;;;;;;;1.83;1.10;;;18.00;72.60;;;;;;10375029;28;20036;-56
2021/10/31 16:17:11;;;;;;;1.75;0.90;;;18.10;72.60;;;;;;10376086;28;20572;-58
2021/10/31 16:22:14;;;;;;;1.67;1.17;;;18.10;72.60;;;;;;10375914;28;20585;-57
2021/10/31 16:27:15;;;;;;;2.20;1.00;;;18.10;72.70;;;;;;10362507;28;20037;-56
2021/10/31 16:32:16;;;;;;;1.40;0.93;;;18.00;72.80;;;;;;10341742;28;20033;-58
2021/10/31 16:37:16;;;;;;;1.25;0.80;;;18.00;73.00;;;;;;10335014;28;20043;-57
2021/10/31 16:42:17;;;;;;;0.70;0.60;;;18.00;73.00;;;;;;10332139;28;20042;-57
2021/10/31 16:47:20;;;;;;;1.50;1.10;;;18.10;72.60;;;;;;10333490;28;20109;-57
2021/10/31 16:52:21;;;;;;;1.73;1.02;;;18.20;72.30;;;;;;10333219;28;20036;-57
2021/10/31 16:57:22;;;;;;;1.42;1.00;;;18.20;72.30;;;;;;10333061;28;20125;-58
2021/10/31 17:02:23;;;;;;;1.90;1.00;;;18.20;72.00;;;;;;10348721;28;20048;-57
2021/10/31 17:07:27;;;;;;;1.75;1.17;;;18.30;71.80;;;;;;10373272;28;20084;-57
2021/10/31 17:12:28;;;;;;;1.83;1.15;;;18.30;71.90;;;;;;10333954;28;20042;-56
2021/10/31 17:17:29;;;;;;;1.80;1.08;;;18.20;72.10;;;;;;10372903;28;20033;-56
2021/10/31 17:22:30;;;;;;;2.42;1.08;;;18.20;72.10;;;;;;10373182;28;20109;-55
2021/10/31 17:27:31;;;;;;;1.77;1.05;;;18.20;72.20;;;;;;10347958;28;20045;-56
2021/10/31 17:32:32;;;;;;;1.83;1.08;;;18.20;72.30;;;;;;10336100;28;20494;-56
2021/10/31 17:37:33;;;;;;;1.20;0.80;;;18.10;72.50;;;;;;10331438;28;20034;-57
2021/10/31 17:42:34;;;;;;;1.98;1.08;;;18.10;72.30;;;;;;10331083;28;20049;-57
2021/10/31 17:47:35;;;;;;;1.65;1.00;;;18.20;72.20;;;;;;10331204;28;20042;-57
2021/10/31 17:52:36;;;;;;;1.95;1.35;;;18.20;72.30;;;;;;10331493;28;20034;-56
2021/10/31 17:57:37;;;;;;;1.88;1.20;;;18.10;72.30;;;;;;10330141;28;20030;-56
2021/10/31 18:02:39;;;;;;;1.83;1.17;;;18.10;72.50;;;;;;10348685;28;20445;-57
2021/10/31 18:07:40;;;;;;;2.90;1.25;;;18.00;72.80;;;;;;10367055;28;20077;-57
2021/10/31 18:12:41;;;;;;;2.83;0.98;;;18.10;72.70;;;;;;10347918;28;20030;-57
2021/10/31 18:17:43;;;;;;;4.15;1.20;;;18.20;72.20;;;;;;10348785;28;20121;-53
2021/10/31 18:22:50;;;;;;;2.13;1.05;;;18.20;72.70;;;;;;10331625;28;20053;-58
2021/10/31 18:27:52;;;;;;;3.95;1.42;;;18.20;72.90;;;;;;10369489;28;20026;-58
2021/10/31 18:32:53;;;;;;;4.72;1.23;;;18.30;73.40;;;;;;10363426;28;20034;-57
2021/10/31 18:37:55;;;;;;;2.65;1.38;;;18.40;73.70;;;;;;10354524;28;20033;-58
2021/10/31 18:42:55;;;;;;;2.38;0.93;;;18.30;74.00;;;;;;10354835;28;20034;-58
2021/10/31 18:47:57;;;;;;;2.45;1.33;;;18.30;74.10;;;;;;10353594;28;20041;-57
2021/10/31 18:53:00;;;;;;;3.97;1.25;;;18.30;74.20;;;;;;10367221;28;20393;-58
2021/10/31 18:58:01;;;;;;;3.63;1.08;;;18.30;74.40;;;;;;10364839;28;20034;-59
2021/10/31 19:03:02;;;;;;;2.92;1.08;;;18.30;74.20;;;;;;10368423;28;20034;-56
2021/10/31 19:08:03;;;;;;;4.70;1.70;;;18.20;74.10;;;;;;10373363;28;20034;-58
2021/10/31 19:13:05;;;;;;;2.08;1.00;;;18.20;74.40;;;;;;10340444;28;20030;-58
2021/10/31 19:18:06;;;;;;;2.08;1.20;;;18.10;74.50;;;;;;10357258;28;20791;-57
2021/10/31 19:23:07;;;;;;;3.40;1.00;;;18.10;74.30;;;;;;10360059;28;20472;-57
2021/10/31 19:28:08;;;;;;;7.40;1.58;;;18.10;75.10;;;;;;10356167;28;20101;-58
2021/10/31 19:33:09;;;;;;;3.25;1.10;;;18.10;74.30;;;;;;10389171;28;20092;-59
2021/10/31 19:38:09;;;;;;;4.63;1.20;;;18.00;74.30;;;;;;10367465;28;20484;-58
2021/10/31 19:43:11;;;;;;;3.00;1.10;;;18.00;74.40;;;;;;10377662;28;20065;-57
2021/10/31 19:48:12;;;;;;;4.93;1.15;;;17.90;74.40;;;;;;10366935;28;20112;-57
2021/10/31 19:53:13;;;;;;;3.45;1.00;;;17.90;74.50;;;;;;10371728;28;20180;-56
2021/10/31 19:58:14;;;;;;;3.60;1.10;;;17.90;74.60;;;;;;10347226;28;20044;-59
2021/10/31 20:03:15;;;;;;;2.30;0.82;;;17.80;74.60;;;;;;10357836;28;20115;-58
2021/10/31 20:08:22;;;;;;;3.70;1.10;;;17.90;74.60;;;;;;10373481;28;20678;-59
2021/10/31 20:13:23;;;;;;;2.33;1.00;;;17.90;74.30;;;;;;10347780;28;20037;-58
2021/10/31 20:18:23;;;;;;;2.05;1.13;;;17.90;74.20;;;;;;10334264;28;20042;-59
2021/10/31 20:23:24;;;;;;;2.72;1.10;;;17.90;74.30;;;;;;10336199;28;20030;-58
2021/10/31 20:28:25;;;;;;;2.15;1.13;;;17.90;74.30;;;;;;10366676;28;20038;-58
2021/10/31 20:33:26;;;;;;;1.50;0.82;;;17.80;74.30;;;;;;10337023;28;20065;-58
2021/10/31 20:38:27;;;;;;;2.20;1.13;;;17.80;74.30;;;;;;10376375;28;20415;-55
2021/10/31 20:43:28;;;;;;;2.25;1.05;;;17.80;74.40;;;;;;10375622;28;20133;-55
2021/10/31 20:48:29;;;;;;;2.85;1.08;;;17.80;74.50;;;;;;10375596;28;20056;-56
2021/10/31 20:53:32;;;;;;;3.25;0.98;;;17.70;74.40;;;;;;10358073;28;20493;-56
2021/10/31 20:58:39;;;;;;;2.40;0.88;;;17.70;74.40;;;;;;10373982;28;20030;-56
2021/10/31 21:03:39;;;;;;;2.03;1.00;;;17.70;74.50;;;;;;10375350;28;20018;-57
2021/10/31 21:08:40;;;;;;;1.10;0.98;;;17.70;74.60;;;;;;10374821;28;20466;-56
2021/10/31 21:13:42;;;;;;;2.85;1.27;;;17.70;74.60;;;;;;10374615;28;20108;-56
2021/10/31 21:18:43;;;;;;;1.77;0.90;;;17.70;74.60;;;;;;10372377;28;20516;-56
2021/10/31 21:23:44;;;;;;;2.47;1.08;;;17.60;74.60;;;;;;10374358;28;20076;-56
2021/10/31 21:28:45;;;;;;;2.78;1.20;;;17.60;74.60;;;;;;10343661;28;20026;-56
2021/10/31 21:33:46;;;;;;;1.70;0.80;;;17.60;74.70;;;;;;10339438;28;20032;-56
2021/10/31 21:38:51;;;;;;;2.38;1.00;;;17.60;74.70;;;;;;10373798;28;20034;-56
2021/10/31 21:43:51;;;;;;;1.35;0.75;;;17.60;74.70;;;;;;10373568;28;20125;-56
2021/10/31 21:48:52;;;;;;;3.17;1.50;;;17.50;74.70;;;;;;10373470;28;20468;-56
2021/10/31 21:53:53;;;;;;;1.38;1.00;;;17.50;74.70;;;;;;10373310;28;20022;-56
2021/10/31 21:58:54;;;;;;;1.20;0.70;;;17.50;74.70;;;;;;10373220;28;20029;-56
2021/10/31 22:03:55;;;;;;;2.10;0.88;;;17.50;74.70;;;;;;10373011;28;20088;-56
2021/10/31 22:08:55;;;;;;;2.17;0.95;;;17.50;74.70;;;;;;10372812;28;20169;-56
2021/10/31 22:13:58;;;;;;;2.53;0.80;;;17.50;74.70;;;;;;10372834;28;20083;-55
2021/10/31 22:18:59;;;;;;;1.33;0.90;;;17.50;74.70;;;;;;10366272;28;20046;-56
2021/10/31 22:24:00;;;;;;;2.85;1.10;;;17.40;74.70;;;;;;10353755;28;20080;-54
2021/10/31 22:29:02;;;;;;;2.65;0.90;;;17.50;74.70;;;;;;10341302;28;20049;-56
2021/10/31 22:34:03;;;;;;;1.95;0.85;;;17.40;74.70;;;;;;10361888;28;20494;-55
2021/10/31 22:39:04;;;;;;;1.27;0.90;;;17.40;74.70;;;;;;10370795;28;20407;-56
2021/10/31 22:44:05;;;;;;;1.27;0.90;;;17.40;74.70;;;;;;10372026;28;20038;-56
2021/10/31 22:49:06;;;;;;;2.33;0.95;;;17.40;74.70;;;;;;10339147;28;20474;-56
2021/10/31 22:54:07;;;;;;;1.55;0.95;;;17.40;74.70;;;;;;10331178;28;20038;-55
2021/10/31 22:59:08;;;;;;;2.13;0.98;;;17.40;74.70;;;;;;10331199;28;20030;-56
2021/10/31 23:04:08;;;;;;;1.63;1.10;;;17.40;74.70;;;;;;10361271;28;20386;-55
2021/10/31 23:09:09;;;;;;;1.77;0.80;;;17.40;74.60;;;;;;10371776;28;20095;-56
2021/10/31 23:14:10;;;;;;;2.40;0.82;;;17.40;74.40;;;;;;10371698;28;20032;-56
2021/10/31 23:19:10;;;;;;;2.65;0.68;;;17.50;74.30;;;;;;10371311;28;20038;-56
2021/10/31 23:24:11;;;;;;;2.30;1.08;;;17.50;74.20;;;;;;10368918;28;20061;-56
2021/10/31 23:29:12;;;;;;;1.35;0.70;;;17.50;74.20;;;;;;10341193;28;20038;-56
2021/10/31 23:34:13;;;;;;;2.30;1.00;;;17.50;74.20;;;;;;10339238;28;20030;-56
2021/10/31 23:39:14;;;;;;;1.38;0.80;;;17.40;74.30;;;;;;10373474;28;20030;-55
2021/10/31 23:44:14;;;;;;;1.70;0.73;;;17.40;74.20;;;;;;10378035;28;20180;-56
2021/10/31 23:49:16;;;;;;;1.88;0.80;;;17.40;74.30;;;;;;10378147;28;20056;-55
2021/10/31 23:54:17;;;;;;;1.42;0.90;;;17.40;74.30;;;;;;10377945;28;20029;-56
2021/10/31 23:59:18;;;;;;;1.67;0.90;;;17.40;74.20;;;;;;10377797;28;20026;-55
